createdAt,value
2022-10-30T00:01:20.593Z,54.72
2022-10-30T00:03:48.677Z,55.00
2022-10-30T00:08:45.895Z,54.99
2022-10-30T00:11:14.541Z,53.94
2022-10-30T00:13:44.774Z,53.93
2022-10-30T00:16:14.263Z,54.09
2022-10-30T00:18:43.276Z,54.19
2022-10-30T00:21:14.957Z,54.37
2022-10-30T00:23:47.711Z,53.88
2022-10-30T00:26:16.731Z,54.01
2022-10-30T00:28:45.774Z,54.05
2022-10-30T00:31:15.194Z,54.45
2022-10-30T00:33:43.379Z,54.00
2022-10-30T00:36:11.506Z,54.10
2022-10-30T00:38:39.622Z,54.50
2022-10-30T00:41:07.792Z,54.46
2022-10-30T00:43:38.703Z,54.37
2022-10-30T00:46:17.488Z,54.14
2022-10-30T00:48:53.016Z,54.62
2022-10-30T00:51:21.921Z,55.21
2022-10-30T00:53:51.692Z,55.19
2022-10-30T00:56:23.973Z,55.93
2022-10-30T00:58:59.690Z,56.35
2022-10-30T01:01:33.424Z,56.43
2022-10-30T01:04:03.445Z,56.93
2022-10-30T01:06:36.750Z,56.91
2022-10-30T01:09:06.255Z,57.22
2022-10-30T01:11:35.422Z,57.26
2022-10-30T01:14:09.144Z,57.28
2022-10-30T01:16:58.790Z,57.25
2022-10-30T01:19:41.149Z,57.15
2022-10-30T01:22:30.309Z,56.79
2022-10-30T01:25:15.788Z,57.14
2022-10-30T01:28:01.870Z,56.83
2022-10-30T01:30:48.367Z,56.39
2022-10-30T01:33:34.473Z,56.19
2022-10-30T01:36:15.964Z,56.22
2022-10-30T01:38:50.171Z,56.18
2022-10-30T01:41:18.505Z,55.93
2022-10-30T01:43:51.970Z,55.57
2022-10-30T01:46:43.894Z,55.39
2022-10-30T01:49:54.903Z,55.24
2022-10-30T01:52:37.912Z,55.73
2022-10-30T01:55:16.343Z,55.72
2022-10-30T01:57:56.691Z,56.01
2022-10-30T02:00:25.283Z,56.42
2022-10-30T02:02:53.676Z,56.54
2022-10-30T02:05:33.786Z,56.53
2022-10-30T02:08:02.937Z,57.16
2022-10-30T02:10:34.701Z,57.30
2022-10-30T02:13:03.773Z,57.45
2022-10-30T02:15:33.143Z,57.57
2022-10-30T02:18:01.794Z,57.59
2022-10-30T02:20:32.180Z,57.80
2022-10-30T02:23:00.711Z,57.48
2022-10-30T02:25:34.211Z,57.76
2022-10-30T02:28:02.585Z,58.26
2022-10-30T02:30:32.556Z,57.96
2022-10-30T02:33:02.933Z,58.28
2022-10-30T02:35:32.987Z,58.15
2022-10-30T02:38:01.343Z,58.22
2022-10-30T02:40:29.763Z,58.91
2022-10-30T02:42:58.446Z,59.07
2022-10-30T02:45:26.997Z,58.86
2022-10-30T02:47:55.414Z,59.42
2022-10-30T02:50:25.263Z,59.25
2022-10-30T02:52:55.639Z,58.96
2022-10-30T02:55:23.904Z,59.08
2022-10-30T02:57:54.950Z,59.51
2022-10-30T03:00:23.778Z,59.22
2022-10-30T03:02:56.889Z,59.24
2022-10-30T03:05:25.869Z,59.59
2022-10-30T03:07:56.367Z,59.59
2022-10-30T03:10:24.905Z,59.55
2022-10-30T03:12:53.689Z,59.84
2022-10-30T03:16:13.228Z,59.87
2022-10-30T03:22:23.943Z,60.63
2022-10-30T03:24:53.545Z,60.25
2022-10-30T03:27:21.829Z,60.16
2022-10-30T03:29:52.393Z,60.69
2022-10-30T03:32:20.915Z,60.95
2022-10-30T03:34:54.232Z,61.00
2022-10-30T03:37:22.578Z,61.11
2022-10-30T03:39:51.171Z,61.68
2022-10-30T03:42:23.919Z,61.03
2022-10-30T03:44:53.127Z,60.87
2022-10-30T03:47:21.259Z,61.47
2022-10-30T03:49:49.359Z,61.33
2022-10-30T03:52:20.875Z,61.37
2022-10-30T03:54:50.534Z,60.96
2022-10-30T03:57:23.144Z,61.53
2022-10-30T04:00:08.437Z,61.41
2022-10-30T04:02:47.458Z,61.24
2022-10-30T04:05:18.619Z,61.56
2022-10-30T04:07:47.229Z,61.87
2022-10-30T04:10:20.939Z,61.38
2022-10-30T04:12:54.820Z,61.34
2022-10-30T04:15:24.601Z,61.94
2022-10-30T04:17:53.768Z,62.12
2022-10-30T04:20:23.306Z,62.38
2022-10-30T04:22:56.748Z,62.29
2022-10-30T04:25:25.952Z,62.14
2022-10-30T04:27:56.385Z,62.69
2022-10-30T04:30:27.210Z,62.46
2022-10-30T04:32:57.721Z,62.35
2022-10-30T04:35:30.355Z,62.18
2022-10-30T04:38:00.551Z,62.52
2022-10-30T04:40:30.923Z,62.78
2022-10-30T04:43:05.281Z,62.65
2022-10-30T04:45:34.839Z,62.49
2022-10-30T04:48:07.821Z,62.41
2022-10-30T04:50:36.865Z,62.57
2022-10-30T04:53:09.611Z,62.76
2022-10-30T04:55:37.769Z,62.38
2022-10-30T04:58:08.158Z,62.60
2022-10-30T05:00:39.184Z,62.64
2022-10-30T05:03:21.339Z,62.82
2022-10-30T05:05:57.957Z,62.54
2022-10-30T05:08:26.184Z,62.78
2022-10-30T05:10:54.931Z,62.93
2022-10-30T05:13:24.989Z,62.98
2022-10-30T05:15:55.961Z,62.38
2022-10-30T05:18:24.541Z,62.62
2022-10-30T05:20:52.756Z,63.31
2022-10-30T05:23:21.003Z,63.13
2022-10-30T05:25:49.305Z,63.36
2022-10-30T05:28:17.584Z,63.00
2022-10-30T05:30:56.757Z,63.31
2022-10-30T05:33:48.137Z,63.48
2022-10-30T05:36:16.282Z,63.50
2022-10-30T05:38:46.585Z,63.10
2022-10-30T05:41:22.608Z,63.14
2022-10-30T05:43:50.752Z,62.71
2022-10-30T05:46:20.829Z,62.51
2022-10-30T05:48:49.137Z,62.25
2022-10-30T05:51:17.582Z,61.91
2022-10-30T05:53:52.229Z,61.94
2022-10-30T05:56:23.116Z,61.50
2022-10-30T05:58:51.896Z,61.49
2022-10-30T06:01:21.815Z,61.10
2022-10-30T06:03:54.155Z,61.41
2022-10-30T06:10:44.873Z,61.50
2022-10-30T06:13:33.304Z,61.47
2022-10-30T06:16:10.423Z,61.20
2022-10-30T06:18:58.474Z,60.97
2022-10-30T06:21:27.807Z,60.59
2022-10-30T06:24:16.615Z,61.07
2022-10-30T06:26:52.923Z,60.70
2022-10-30T06:29:21.501Z,60.67
2022-10-30T06:31:49.627Z,60.56
2022-10-30T06:34:19.689Z,60.82
2022-10-30T06:36:48.079Z,60.75
2022-10-30T06:39:16.905Z,60.77
2022-10-30T06:41:58.353Z,60.22
2022-10-30T06:44:44.883Z,60.07
2022-10-30T06:47:13.171Z,60.63
2022-10-30T06:49:43.162Z,60.65
2022-10-30T06:52:11.361Z,60.87
2022-10-30T06:54:39.578Z,60.68
2022-10-30T06:57:39.908Z,60.74
2022-10-30T07:00:28.317Z,61.09
2022-10-30T07:03:31.742Z,60.47
2022-10-30T07:06:01.960Z,60.22
2022-10-30T07:08:30.117Z,60.66
2022-10-30T07:10:59.419Z,60.79
2022-10-30T07:13:44.546Z,60.97
2022-10-30T07:16:37.031Z,61.02
2022-10-30T07:19:06.259Z,61.08
2022-10-30T07:21:36.921Z,60.79
2022-10-30T07:24:08.455Z,61.16
2022-10-30T07:26:46.133Z,60.97
2022-10-30T07:29:29.832Z,61.24
2022-10-30T07:32:16.406Z,61.14
2022-10-30T07:35:09.313Z,61.58
2022-10-30T07:37:56.299Z,61.71
2022-10-30T07:40:37.815Z,60.80
2022-10-30T07:43:36.767Z,60.76
2022-10-30T07:46:23.448Z,60.32
2022-10-30T07:49:22.425Z,60.28
2022-10-30T07:51:54.228Z,59.61
2022-10-30T07:54:23.822Z,59.62
2022-10-30T07:56:52.604Z,58.58
2022-10-30T07:59:41.019Z,58.60
2022-10-30T08:02:15.191Z,58.33
2022-10-30T08:05:04.581Z,58.27
2022-10-30T08:07:47.171Z,57.66
2022-10-30T08:10:17.597Z,57.37
2022-10-30T08:12:47.664Z,56.67
2022-10-30T08:15:16.357Z,57.04
2022-10-30T08:17:46.099Z,56.32
2022-10-30T08:20:17.504Z,55.98
2022-10-30T08:22:48.011Z,55.98
2022-10-30T08:25:20.683Z,56.34
2022-10-30T08:27:54.988Z,55.83
2022-10-30T08:30:26.662Z,56.38
2022-10-30T08:32:59.919Z,56.18
2022-10-30T08:35:50.395Z,55.72
2022-10-30T08:38:20.149Z,55.28
2022-10-30T08:40:58.345Z,55.05
2022-10-30T08:43:26.711Z,55.40
2022-10-30T08:45:58.303Z,55.30
2022-10-30T08:48:27.032Z,54.37
2022-10-30T08:51:01.056Z,54.74
2022-10-30T08:53:34.588Z,55.37
2022-10-30T08:56:07.973Z,55.15
2022-10-30T08:58:47.647Z,55.05
2022-10-30T09:01:16.089Z,54.49
2022-10-30T09:04:07.739Z,53.96
2022-10-30T09:06:54.435Z,54.05
2022-10-30T09:09:52.002Z,54.27
2022-10-30T09:12:21.461Z,53.81
2022-10-30T09:14:49.679Z,54.18
2022-10-30T09:17:17.812Z,54.19
2022-10-30T09:22:22.520Z,53.45
2022-10-30T09:24:51.252Z,53.04
2022-10-30T09:27:40.623Z,53.44
2022-10-30T09:30:12.374Z,53.91
2022-10-30T09:32:44.968Z,52.78
2022-10-30T09:35:17.862Z,52.50
2022-10-30T09:37:46.389Z,52.81
2022-10-30T09:40:30.643Z,53.05
2022-10-30T09:43:09.657Z,52.59
2022-10-30T09:46:19.976Z,51.34
2022-10-30T09:49:25.899Z,50.97
2022-10-30T09:52:22.547Z,51.19
2022-10-30T09:55:19.969Z,49.59
2022-10-30T09:57:57.287Z,50.50
2022-10-30T10:00:34.627Z,50.38
2022-10-30T10:03:28.427Z,49.87
2022-10-30T10:06:27.660Z,50.10
2022-10-30T10:09:10.620Z,50.17
2022-10-30T10:12:06.508Z,48.88
2022-10-30T10:14:40.052Z,48.83
2022-10-30T10:17:16.560Z,49.06
2022-10-30T10:19:54.252Z,50.16
2022-10-30T10:22:51.322Z,51.26
2022-10-30T10:25:52.026Z,49.41
2022-10-30T10:28:42.790Z,50.14
2022-10-30T10:31:51.019Z,49.34
2022-10-30T10:34:45.749Z,49.56
2022-10-30T10:38:10.596Z,48.47
2022-10-30T10:40:53.808Z,48.18
2022-10-30T10:43:39.256Z,47.99
2022-10-30T10:46:31.080Z,50.11
2022-10-30T10:49:19.586Z,49.27
2022-10-30T10:51:57.665Z,49.45
2022-10-30T10:54:32.696Z,49.89
2022-10-30T10:57:06.135Z,49.66
2022-10-30T10:59:39.659Z,48.80
2022-10-30T11:02:32.241Z,48.58
2022-10-30T11:05:22.372Z,47.77
2022-10-30T11:07:52.349Z,48.08
2022-10-30T11:10:23.693Z,47.61
2022-10-30T11:12:52.245Z,47.47
2022-10-30T11:15:39.548Z,45.74
2022-10-30T11:18:10.188Z,46.42
2022-10-30T11:20:45.109Z,47.10
2022-10-30T11:23:38.629Z,46.02
2022-10-30T11:26:29.720Z,45.84
2022-10-30T11:29:03.154Z,48.93
2022-10-30T11:31:38.157Z,47.07
2022-10-30T11:34:32.007Z,47.86
2022-10-30T11:37:00.250Z,47.51
2022-10-30T11:39:34.063Z,46.22
2022-10-30T11:42:16.252Z,45.69
2022-10-30T11:44:50.287Z,45.08
2022-10-30T11:47:29.091Z,44.75
2022-10-30T11:50:00.612Z,44.56
2022-10-30T11:52:29.404Z,44.88
2022-10-30T11:55:03.785Z,45.59
2022-10-30T11:57:36.855Z,45.82
2022-10-30T12:00:09.234Z,45.64
2022-10-30T12:02:44.177Z,45.57
2022-10-30T12:05:49.432Z,45.64
2022-10-30T12:08:23.197Z,44.80
2022-10-30T12:11:02.625Z,43.33
2022-10-30T12:13:39.666Z,43.68
2022-10-30T12:16:16.511Z,42.64
2022-10-30T12:18:58.196Z,43.45
2022-10-30T12:21:28.122Z,44.70
2022-10-30T12:24:01.325Z,46.03
2022-10-30T12:26:31.423Z,45.46
2022-10-30T12:29:03.626Z,44.36
2022-10-30T12:31:39.829Z,44.96
2022-10-30T12:34:30.756Z,45.08
2022-10-30T12:37:08.139Z,45.17
2022-10-30T12:39:52.306Z,46.25
2022-10-30T12:42:23.128Z,46.35
2022-10-30T12:45:00.332Z,45.37
2022-10-30T12:47:37.529Z,45.54
2022-10-30T12:50:19.667Z,46.08
2022-10-30T12:52:55.926Z,45.46
2022-10-30T12:55:29.912Z,44.56
2022-10-30T12:58:11.217Z,43.48
2022-10-30T13:00:46.954Z,44.86
2022-10-30T13:03:27.246Z,44.54
2022-10-30T13:05:58.511Z,45.64
2022-10-30T13:08:33.014Z,44.22
2022-10-30T13:11:10.680Z,45.49
2022-10-30T13:13:44.690Z,44.96
2022-10-30T13:16:17.218Z,44.53
2022-10-30T13:18:45.585Z,44.81
2022-10-30T13:21:25.247Z,43.36
2022-10-30T13:23:59.431Z,40.94
2022-10-30T13:26:36.525Z,38.25
2022-10-30T13:29:19.859Z,37.16
2022-10-30T13:32:04.879Z,37.16
2022-10-30T13:34:46.679Z,36.94
2022-10-30T13:37:21.970Z,39.02
2022-10-30T13:40:12.715Z,40.85
2022-10-30T13:42:55.271Z,41.25
2022-10-30T13:45:52.172Z,39.94
2022-10-30T13:48:34.648Z,39.47
2022-10-30T13:51:38.272Z,38.73
2022-10-30T13:54:16.201Z,38.26
2022-10-30T13:56:46.493Z,39.88
2022-10-30T13:59:44.401Z,38.24
2022-10-30T14:02:28.963Z,39.14
2022-10-30T14:05:05.857Z,40.46
2022-10-30T14:07:42.019Z,41.63
2022-10-30T14:10:17.450Z,44.46
2022-10-30T14:12:53.685Z,42.76
2022-10-30T14:15:33.412Z,43.34
2022-10-30T14:18:32.909Z,44.14
2022-10-30T14:21:27.214Z,44.40
2022-10-30T14:24:07.670Z,44.51
2022-10-30T14:26:39.815Z,44.99
2022-10-30T14:29:41.766Z,44.82
2022-10-30T14:32:49.367Z,46.51
2022-10-30T14:36:07.980Z,45.77
2022-10-30T14:38:37.623Z,46.09
2022-10-30T14:41:46.873Z,46.64
2022-10-30T14:45:01.558Z,47.63
2022-10-30T14:48:02.928Z,48.80
2022-10-30T14:50:51.466Z,49.08
2022-10-30T14:53:33.829Z,50.76
2022-10-30T14:56:11.704Z,50.49
2022-10-30T14:58:40.352Z,50.70
2022-10-30T15:01:33.659Z,51.59
2022-10-30T15:04:25.032Z,52.22
2022-10-30T15:07:04.228Z,52.55
2022-10-30T15:09:50.128Z,54.22
2022-10-30T15:12:51.093Z,55.73
2022-10-30T15:15:20.104Z,57.15
2022-10-30T15:17:51.560Z,56.94
2022-10-30T15:20:23.628Z,56.73
2022-10-30T15:22:56.427Z,56.31
2022-10-30T15:25:28.992Z,56.16
2022-10-30T15:27:59.253Z,56.29
2022-10-30T15:30:29.101Z,56.50
2022-10-30T15:32:58.058Z,57.62
2022-10-30T15:35:29.251Z,57.99
2022-10-30T15:38:02.884Z,58.08
2022-10-30T15:40:32.609Z,58.34
2022-10-30T15:43:04.288Z,58.46
2022-10-30T15:45:36.799Z,59.24
2022-10-30T15:48:09.734Z,58.96
2022-10-30T15:50:42.224Z,59.04
2022-10-30T15:53:19.434Z,59.62
2022-10-30T15:55:49.112Z,59.36
2022-10-30T15:58:22.820Z,59.05
2022-10-30T16:00:58.395Z,59.16
2022-10-30T16:03:26.977Z,59.87
2022-10-30T16:06:06.941Z,59.65
2022-10-30T16:08:45.701Z,58.83
2022-10-30T16:11:14.441Z,58.99
2022-10-30T16:13:45.839Z,58.92
2022-10-30T16:16:21.125Z,58.87
2022-10-30T16:18:50.356Z,59.21
2022-10-30T16:21:23.000Z,59.15
2022-10-30T16:23:54.301Z,59.08
2022-10-30T16:26:32.834Z,59.14
2022-10-30T16:29:16.942Z,59.05
2022-10-30T16:31:49.991Z,59.27
2022-10-30T16:34:25.091Z,58.97
2022-10-30T16:36:54.234Z,59.40
2022-10-30T16:39:22.963Z,59.18
2022-10-30T16:41:51.261Z,59.43
2022-10-30T16:44:27.836Z,58.95
2022-10-30T16:46:59.096Z,58.82
2022-10-30T16:49:31.478Z,58.82
2022-10-30T16:52:03.708Z,59.23
2022-10-30T16:54:37.055Z,58.91
2022-10-30T16:57:12.348Z,59.30
2022-10-30T16:59:48.936Z,58.88
2022-10-30T17:02:21.227Z,58.80
2022-10-30T17:04:57.176Z,58.79
2022-10-30T17:07:27.879Z,58.71
2022-10-30T17:09:58.487Z,58.90
2022-10-30T17:12:28.850Z,58.53
2022-10-30T17:15:13.602Z,58.68
2022-10-30T17:17:44.954Z,59.16
2022-10-30T17:20:30.855Z,59.20
2022-10-30T17:23:13.074Z,59.59
2022-10-30T17:25:42.489Z,59.87
2022-10-30T17:28:29.697Z,59.38
2022-10-30T17:31:19.310Z,59.27
2022-10-30T17:33:48.069Z,59.72
2022-10-30T17:36:16.247Z,59.50
2022-10-30T17:38:46.834Z,59.30
2022-10-30T17:41:16.809Z,59.12
2022-10-30T17:43:58.098Z,58.86
2022-10-30T17:46:27.794Z,58.81
2022-10-30T17:48:55.986Z,59.21
2022-10-30T17:51:24.079Z,58.71
2022-10-30T17:53:52.348Z,58.44
2022-10-30T17:56:25.810Z,58.49
2022-10-30T17:58:55.316Z,58.44
2022-10-30T18:01:27.808Z,58.38
2022-10-30T18:03:57.190Z,58.99
2022-10-30T18:06:27.509Z,59.27
2022-10-30T18:08:56.452Z,59.26
2022-10-30T18:11:27.061Z,59.46
2022-10-30T18:13:58.143Z,59.42
2022-10-30T18:16:28.222Z,59.36
2022-10-30T18:18:56.405Z,59.51
2022-10-30T18:21:27.427Z,59.02
2022-10-30T18:23:56.266Z,59.08
2022-10-30T18:26:26.687Z,59.01
2022-10-30T18:28:55.217Z,59.27
2022-10-30T18:31:25.261Z,59.37
2022-10-30T18:33:54.908Z,59.26
2022-10-30T18:36:25.193Z,59.00
2022-10-30T18:38:54.520Z,59.51
2022-10-30T18:41:29.537Z,58.53
2022-10-30T18:43:57.778Z,59.21
2022-10-30T18:46:27.700Z,59.51
2022-10-30T18:48:57.331Z,59.56
2022-10-30T18:51:27.999Z,59.81
2022-10-30T18:53:57.019Z,60.18
2022-10-30T18:56:27.718Z,60.23
2022-10-30T18:59:01.887Z,60.70
2022-10-30T19:01:32.035Z,60.78
2022-10-30T19:04:04.296Z,61.01
2022-10-30T19:06:34.479Z,61.49
2022-10-30T19:09:27.073Z,61.73
2022-10-30T19:11:55.345Z,61.74
2022-10-30T19:14:23.688Z,61.71
2022-10-30T19:16:51.861Z,61.61
2022-10-30T19:19:21.451Z,61.37
2022-10-30T19:21:49.741Z,61.60
2022-10-30T19:24:17.922Z,61.23
2022-10-30T19:26:46.207Z,61.44
2022-10-30T19:29:14.491Z,61.66
2022-10-30T19:31:44.269Z,61.01
2022-10-30T19:34:12.444Z,61.47
2022-10-30T19:36:42.076Z,60.88
2022-10-30T19:39:15.731Z,60.77
2022-10-30T19:41:44.495Z,60.76
2022-10-30T19:44:12.664Z,60.94
2022-10-30T19:46:40.941Z,60.68
2022-10-30T19:49:18.805Z,60.56
2022-10-30T19:51:49.308Z,60.79
2022-10-30T19:54:19.442Z,60.98
2022-10-30T19:56:47.980Z,61.41
2022-10-30T19:59:20.076Z,61.45
2022-10-30T20:01:48.400Z,61.42
2022-10-30T20:04:18.592Z,61.91
2022-10-30T20:06:48.245Z,62.01
2022-10-30T20:09:16.571Z,61.79
2022-10-30T20:11:44.910Z,61.69
2022-10-30T20:14:13.017Z,61.60
2022-10-30T20:16:41.287Z,61.86
2022-10-30T20:19:27.688Z,62.62
2022-10-30T20:21:57.601Z,62.83
2022-10-30T20:24:25.799Z,62.92
2022-10-30T20:26:57.785Z,62.79
2022-10-30T20:29:26.535Z,62.80
2022-10-30T20:31:54.757Z,63.30
2022-10-30T20:34:22.902Z,63.37
2022-10-30T20:36:51.045Z,63.63
2022-10-30T20:39:20.627Z,63.65
2022-10-30T20:41:48.912Z,63.46
2022-10-30T20:44:17.045Z,63.83
2022-10-30T20:46:45.243Z,63.62
2022-10-30T20:49:17.572Z,63.64
2022-10-30T20:51:47.539Z,63.84
2022-10-30T20:54:15.826Z,63.73
2022-10-30T20:56:45.540Z,63.91
2022-10-30T20:59:13.756Z,63.53
2022-10-30T21:01:42.054Z,64.19
2022-10-30T21:04:10.334Z,65.07
2022-10-30T21:06:38.704Z,64.76
2022-10-30T21:09:07.014Z,64.88
2022-10-30T21:11:35.254Z,64.92
2022-10-30T21:14:04.911Z,64.73
2022-10-30T21:16:33.191Z,64.80
2022-10-30T21:19:03.818Z,65.12
2022-10-30T21:21:31.951Z,65.58
2022-10-30T21:24:00.337Z,64.85
2022-10-30T21:26:29.854Z,65.00
2022-10-30T21:28:57.982Z,64.85
2022-10-30T21:31:27.575Z,65.53
2022-10-30T21:33:55.794Z,65.76
2022-10-30T21:36:24.729Z,65.19
2022-10-30T21:38:52.939Z,65.25
2022-10-30T21:41:24.813Z,65.54
2022-10-30T21:43:54.984Z,66.08
2022-10-30T21:46:25.766Z,65.56
2022-10-30T21:48:55.712Z,65.47
2022-10-30T21:51:27.586Z,65.69
2022-10-30T21:53:57.262Z,65.23
2022-10-30T21:56:27.914Z,65.20
2022-10-30T21:58:57.080Z,65.61
2022-10-30T22:01:28.615Z,65.19
2022-10-30T22:04:00.796Z,65.31
2022-10-30T22:06:29.930Z,65.63
2022-10-30T22:08:58.905Z,65.12
2022-10-30T22:11:29.478Z,64.99
2022-10-30T22:13:59.724Z,64.85
2022-10-30T22:16:31.140Z,64.91
2022-10-30T22:19:01.315Z,64.83
2022-10-30T22:21:30.970Z,65.51
2022-10-30T22:24:00.577Z,65.12
2022-10-30T22:26:29.494Z,64.92
2022-10-30T22:28:59.632Z,64.62
2022-10-30T22:31:29.752Z,64.67
2022-10-30T22:34:01.628Z,64.72
2022-10-30T22:36:32.401Z,64.92
2022-10-30T22:39:03.260Z,64.66
2022-10-30T22:41:37.646Z,64.64
2022-10-30T22:44:08.932Z,64.65
2022-10-30T22:46:38.149Z,64.93
2022-10-30T22:49:08.122Z,64.74
2022-10-30T22:51:38.801Z,65.29
2022-10-30T22:54:09.044Z,65.15
2022-10-30T22:56:38.222Z,64.77
2022-10-30T22:59:10.807Z,65.05
2022-10-30T23:01:39.928Z,64.64
2022-10-30T23:04:12.429Z,64.30
2022-10-30T23:06:40.690Z,64.61
2022-10-30T23:09:15.726Z,64.21
2022-10-30T23:11:44.028Z,64.75
2022-10-30T23:14:12.304Z,64.65
2022-10-30T23:16:40.478Z,64.50
2022-10-30T23:19:11.763Z,64.68
2022-10-30T23:21:40.130Z,64.71
2022-10-30T23:24:08.992Z,64.73
2022-10-30T23:26:37.563Z,64.83
2022-10-30T23:29:06.590Z,64.77
2022-10-30T23:31:39.299Z,64.71
2022-10-30T23:34:12.048Z,65.26
2022-10-30T23:36:40.691Z,65.21
2022-10-30T23:39:14.133Z,64.96
2022-10-30T23:41:42.600Z,64.83
2022-10-30T23:44:15.045Z,64.75
2022-10-30T23:46:44.011Z,64.84
2022-10-30T23:49:13.663Z,64.48
2022-10-30T23:51:41.902Z,64.71
2022-10-30T23:54:10.231Z,64.83
2022-10-30T23:56:38.435Z,64.86
2022-10-30T23:59:06.720Z,65.01
